createdAt,value
2022-08-03T00:00:37.114Z,9.418257
2022-08-03T00:01:37.102Z,9.418290
2022-08-03T00:02:37.123Z,9.418324
2022-08-03T00:03:37.091Z,9.418242
2022-08-03T00:04:37.086Z,9.418225
2022-08-03T00:05:37.096Z,9.418190
2022-08-03T00:06:37.428Z,9.418174
2022-08-03T00:07:38.062Z,9.418195
2022-08-03T00:08:40.057Z,9.418161
2022-08-03T00:09:37.049Z,9.418162
2022-08-03T00:10:37.039Z,9.418212
2022-08-03T00:11:38.034Z,9.418213
2022-08-03T00:12:37.026Z,9.418260
2022-08-03T00:13:37.022Z,9.418194
2022-08-03T00:14:37.018Z,9.418253
2022-08-03T00:15:37.009Z,9.418257
2022-08-03T00:16:37.005Z,9.418278
2022-08-03T00:17:53.674Z,9.418297
2022-08-03T00:18:37.994Z,9.418262
2022-08-03T00:19:36.978Z,9.418188
2022-08-03T00:20:37.010Z,9.418161
2022-08-03T00:21:36.971Z,9.418212
2022-08-03T00:22:36.959Z,9.418253
2022-08-03T00:23:52.510Z,9.418206
2022-08-03T00:24:37.946Z,9.418161
2022-08-03T00:25:36.970Z,9.418149
2022-08-03T00:26:36.942Z,9.418267
2022-08-03T00:27:36.935Z,9.418255
2022-08-03T00:28:36.922Z,9.418311
2022-08-03T00:29:59.642Z,9.418324
2022-08-03T00:30:37.921Z,9.418243
2022-08-03T00:31:51.688Z,9.418259
2022-08-03T00:32:38.823Z,9.418266
2022-08-03T00:33:58.921Z,9.418293
2022-08-03T00:34:57.228Z,9.418272
2022-08-03T00:35:50.362Z,9.418220
2022-08-03T00:36:37.883Z,9.418274
2022-08-03T00:37:41.320Z,9.418241
2022-08-03T00:38:37.855Z,9.418325
2022-08-03T00:39:36.853Z,9.418368
2022-08-03T00:40:36.846Z,9.418342
2022-08-03T00:41:36.848Z,9.418332
2022-08-03T00:42:36.827Z,9.418287
2022-08-03T00:43:36.822Z,9.418310
2022-08-03T00:44:36.814Z,9.418378
2022-08-03T00:45:36.791Z,9.418279
2022-08-03T00:46:36.815Z,9.418305
2022-08-03T00:47:36.781Z,9.418372
2022-08-03T00:48:36.795Z,9.418325
2022-08-03T00:49:36.824Z,9.418331
2022-08-03T00:50:36.781Z,9.418272
2022-08-03T00:51:36.766Z,9.418310
2022-08-03T00:52:36.775Z,9.418349
2022-08-03T00:53:36.753Z,9.418354
2022-08-03T00:54:36.739Z,9.418239
2022-08-03T00:55:36.734Z,9.418304
2022-08-03T00:56:36.726Z,9.418252
2022-08-03T00:57:36.734Z,9.418232
2022-08-03T00:58:36.710Z,9.418247
2022-08-03T00:59:36.705Z,9.418278
2022-08-03T01:00:36.698Z,9.418276
2022-08-03T01:01:36.719Z,9.418295
2022-08-03T01:02:36.686Z,9.418470
2022-08-03T01:03:36.690Z,9.418389
2022-08-03T01:04:36.673Z,9.418339
2022-08-03T01:05:36.657Z,9.418340
2022-08-03T01:06:36.659Z,9.418290
2022-08-03T01:07:36.657Z,9.418194
2022-08-03T01:08:36.651Z,9.418193
2022-08-03T01:09:36.640Z,9.418232
2022-08-03T01:10:36.626Z,9.418224
2022-08-03T01:11:36.626Z,9.418236
2022-08-03T01:12:37.633Z,9.418230
2022-08-03T01:14:04.476Z,9.418250
2022-08-03T01:14:37.601Z,9.418251
2022-08-03T01:15:36.593Z,9.418257
2022-08-03T01:16:37.223Z,9.418234
2022-08-03T01:17:36.604Z,9.418249
2022-08-03T01:18:36.577Z,9.418260
2022-08-03T01:19:36.561Z,9.418326
2022-08-03T01:20:36.562Z,9.418335
2022-08-03T01:21:36.558Z,9.418290
2022-08-03T01:22:36.562Z,9.418289
2022-08-03T01:23:36.529Z,9.418263
2022-08-03T01:24:37.531Z,9.418247
2022-08-03T01:25:36.560Z,9.418247
2022-08-03T01:26:36.517Z,9.418286
2022-08-03T01:27:36.517Z,9.418287
2022-08-03T01:28:36.521Z,9.418307
2022-08-03T01:29:36.505Z,9.418263
2022-08-03T01:30:36.490Z,9.418237
2022-08-03T01:31:36.491Z,9.418232
2022-08-03T01:32:59.421Z,9.418273
2022-08-03T01:33:37.486Z,9.418271
2022-08-03T01:34:36.469Z,9.418277
2022-08-03T01:35:38.442Z,9.418308
2022-08-03T01:36:36.451Z,9.418324
2022-08-03T01:37:36.447Z,9.418275
2022-08-03T01:38:36.457Z,9.418338
2022-08-03T01:39:36.430Z,9.418324
2022-08-03T01:40:36.429Z,9.418339
2022-08-03T01:41:36.416Z,9.418287
2022-08-03T01:42:36.414Z,9.418271
2022-08-03T01:44:26.828Z,9.418262
2022-08-03T01:44:37.413Z,9.418267
2022-08-03T01:45:36.389Z,9.418283
2022-08-03T01:46:36.392Z,9.418265
2022-08-03T01:47:36.377Z,9.418262
2022-08-03T01:48:36.364Z,9.418293
2022-08-03T01:49:36.417Z,9.418276
2022-08-03T01:50:36.346Z,9.418260
2022-08-03T01:52:02.761Z,9.418249
2022-08-03T01:52:37.340Z,9.418274
2022-08-03T01:53:36.333Z,9.418263
2022-08-03T01:54:36.370Z,9.418274
2022-08-03T01:55:36.325Z,9.418304
2022-08-03T01:56:36.317Z,9.418332
2022-08-03T01:58:04.813Z,9.418257
2022-08-03T01:58:37.298Z,9.418268
2022-08-03T01:59:36.304Z,9.418226
2022-08-03T02:00:36.297Z,9.418283
2022-08-03T02:02:28.326Z,9.418265
2022-08-03T02:02:37.645Z,9.418247
2022-08-03T02:03:36.273Z,9.418244
2022-08-03T02:04:36.252Z,9.418197
2022-08-03T02:05:36.267Z,9.418210
2022-08-03T02:07:01.968Z,9.418230
2022-08-03T02:07:37.237Z,9.418251
2022-08-03T02:08:36.232Z,9.418249
2022-08-03T02:09:36.224Z,9.418302
2022-08-03T02:10:36.234Z,9.418215
2022-08-03T02:11:36.209Z,9.418233
2022-08-03T02:12:36.212Z,9.418229
2022-08-03T02:13:36.194Z,9.418240
2022-08-03T02:14:36.196Z,9.418251
2022-08-03T02:15:36.208Z,9.418264
2022-08-03T02:16:36.173Z,9.418229
2022-08-03T02:17:39.124Z,9.418210
2022-08-03T02:18:36.168Z,9.418240
2022-08-03T02:19:36.160Z,9.418177
2022-08-03T02:20:36.160Z,9.418160
2022-08-03T02:21:56.746Z,9.418248
2022-08-03T02:22:37.136Z,9.418278
2022-08-03T02:23:36.131Z,9.418284
2022-08-03T02:24:36.134Z,9.418302
2022-08-03T02:25:36.115Z,9.418301
2022-08-03T02:26:36.112Z,9.418333
2022-08-03T02:27:39.384Z,9.418296
2022-08-03T02:28:37.091Z,9.418206
2022-08-03T02:29:39.457Z,9.418277
2022-08-03T02:30:36.104Z,9.418280
2022-08-03T02:31:36.087Z,9.418343
2022-08-03T02:32:36.078Z,9.418400
2022-08-03T02:33:36.063Z,9.418290
2022-08-03T02:34:36.059Z,9.418254
2022-08-03T02:35:36.047Z,9.418251
2022-08-03T02:36:36.052Z,9.418284
2022-08-03T02:37:36.032Z,9.418278
2022-08-03T02:38:36.020Z,9.418275
2022-08-03T02:39:36.032Z,9.418253
2022-08-03T02:40:36.020Z,9.418270
2022-08-03T02:41:36.020Z,9.418360
2022-08-03T02:42:36.000Z,9.418291
2022-08-03T02:43:40.209Z,9.418233
2022-08-03T02:44:36.987Z,9.418280
2022-08-03T02:45:35.983Z,9.418286
2022-08-03T02:46:36.004Z,9.418202
2022-08-03T02:47:53.653Z,9.418254
2022-08-03T02:48:36.964Z,9.418225
2022-08-03T02:49:49.731Z,9.418241
2022-08-03T02:50:36.940Z,9.418276
2022-08-03T02:51:35.963Z,9.418309
2022-08-03T02:52:35.927Z,9.418259
2022-08-03T02:53:35.916Z,9.418242
2022-08-03T02:54:35.919Z,9.418198
2022-08-03T02:55:35.909Z,9.418197
2022-08-03T02:56:36.916Z,9.418252
2022-08-03T02:57:35.891Z,9.418263
2022-08-03T02:58:35.875Z,9.418181
2022-08-03T02:59:35.883Z,9.418197
2022-08-03T03:00:35.883Z,9.418227
2022-08-03T03:01:35.866Z,9.418190
2022-08-03T03:02:35.878Z,9.418201
2022-08-03T03:03:44.585Z,9.418239
2022-08-03T03:04:36.843Z,9.418194
2022-08-03T03:05:56.008Z,9.418153
2022-08-03T03:06:36.820Z,9.418179
2022-08-03T03:07:51.472Z,9.418205
2022-08-03T03:08:36.815Z,9.418214
2022-08-03T03:09:41.577Z,9.418216
2022-08-03T03:10:36.795Z,9.418130
2022-08-03T03:11:35.791Z,9.418217
2022-08-03T03:12:35.787Z,9.418365
2022-08-03T03:13:35.763Z,9.418267
2022-08-03T03:14:35.768Z,9.418239
2022-08-03T03:15:35.748Z,9.418211
2022-08-03T03:16:35.755Z,9.418174
2022-08-03T03:17:35.755Z,9.418283
2022-08-03T03:18:35.733Z,9.418359
2022-08-03T03:19:35.734Z,9.418386
2022-08-03T03:20:35.729Z,9.418395
2022-08-03T03:21:35.711Z,9.418345
2022-08-03T03:22:35.715Z,9.418289
2022-08-03T03:23:35.707Z,9.418185
2022-08-03T03:24:35.703Z,9.418194
2022-08-03T03:25:35.704Z,9.418221
2022-08-03T03:26:37.374Z,9.418266
2022-08-03T03:27:36.682Z,9.418210
2022-08-03T03:28:35.682Z,9.418252
2022-08-03T03:29:39.164Z,9.418242
2022-08-03T03:30:35.676Z,9.418250
2022-08-03T03:31:35.647Z,9.418242
2022-08-03T03:32:35.648Z,9.418229
2022-08-03T03:33:35.635Z,9.418221
2022-08-03T03:34:35.630Z,9.418197
2022-08-03T03:35:39.013Z,9.418203
2022-08-03T03:36:35.618Z,9.418261
2022-08-03T03:37:35.615Z,9.418245
2022-08-03T03:38:35.604Z,9.418279
2022-08-03T03:39:35.596Z,9.418288
2022-08-03T03:40:35.598Z,9.418274
2022-08-03T03:41:35.566Z,9.418218
2022-08-03T03:42:35.579Z,9.418262
2022-08-03T03:43:35.570Z,9.418270
2022-08-03T03:44:35.550Z,9.418262
2022-08-03T03:45:35.574Z,9.418275
2022-08-03T03:46:35.547Z,9.418318
2022-08-03T03:47:35.530Z,9.418234
2022-08-03T03:48:35.510Z,9.418258
2022-08-03T03:49:35.559Z,9.418307
2022-08-03T03:50:35.509Z,9.418283
2022-08-03T03:51:36.522Z,9.418247
2022-08-03T03:52:35.495Z,9.418268
2022-08-03T03:53:35.494Z,9.418265
2022-08-03T03:54:35.479Z,9.418244
2022-08-03T03:55:35.490Z,9.418254
2022-08-03T03:56:36.474Z,9.418217
2022-08-03T03:57:35.469Z,9.418226
2022-08-03T03:58:35.458Z,9.418212
2022-08-03T03:59:36.018Z,9.418189
2022-08-03T04:00:35.490Z,9.418227
2022-08-03T04:01:35.446Z,9.418215
2022-08-03T04:02:35.436Z,9.418229
2022-08-03T04:03:35.423Z,9.418223
2022-08-03T04:04:35.421Z,9.418250
2022-08-03T04:05:35.405Z,9.418247
2022-08-03T04:06:35.422Z,9.418255
2022-08-03T04:07:35.391Z,9.418268
2022-08-03T04:08:35.390Z,9.418258
2022-08-03T04:09:35.380Z,9.418222
2022-08-03T04:10:35.406Z,9.418249
2022-08-03T04:11:35.393Z,9.418269
2022-08-03T04:12:35.358Z,9.418254
2022-08-03T04:13:35.365Z,9.418254
2022-08-03T04:14:35.353Z,9.418174
2022-08-03T04:15:35.336Z,9.418195
2022-08-03T04:16:35.325Z,9.418241
2022-08-03T04:17:35.340Z,9.418254
2022-08-03T04:18:35.301Z,9.418232
2022-08-03T04:19:36.320Z,9.418283
2022-08-03T04:20:35.299Z,9.418383
2022-08-03T04:21:35.290Z,9.418288
2022-08-03T04:22:35.286Z,9.418187
2022-08-03T04:23:35.282Z,9.418172
2022-08-03T04:24:35.278Z,9.418236
2022-08-03T04:25:35.254Z,9.418240
2022-08-03T04:26:35.262Z,9.418204
2022-08-03T04:27:35.249Z,9.418257
2022-08-03T04:28:35.245Z,9.418175
2022-08-03T04:29:35.241Z,9.418243
2022-08-03T04:30:35.217Z,9.418341
2022-08-03T04:31:35.220Z,9.418357
2022-08-03T04:32:35.206Z,9.418292
2022-08-03T04:33:35.211Z,9.418273
2022-08-03T04:34:35.206Z,9.418236
2022-08-03T04:35:54.763Z,9.418255
2022-08-03T04:36:36.182Z,9.418338
2022-08-03T04:37:35.171Z,9.418373
2022-08-03T04:38:35.158Z,9.418259
2022-08-03T04:39:35.179Z,9.418260
2022-08-03T04:40:35.149Z,9.418236
2022-08-03T04:42:07.931Z,9.418216
2022-08-03T04:42:36.133Z,9.418155
2022-08-03T04:43:35.130Z,9.418198
2022-08-03T04:44:35.130Z,9.418230
2022-08-03T04:45:35.107Z,9.418198
2022-08-03T04:46:35.106Z,9.418226
2022-08-03T04:47:35.089Z,9.418236
2022-08-03T04:48:35.089Z,9.418214
2022-08-03T04:49:35.167Z,9.418358
2022-08-03T04:50:35.079Z,9.418273
2022-08-03T04:51:35.066Z,9.418222
2022-08-03T04:52:35.050Z,9.418195
2022-08-03T04:53:35.054Z,9.418227
2022-08-03T04:54:35.049Z,9.418209
2022-08-03T04:55:35.029Z,9.418281
2022-08-03T04:56:35.030Z,9.418210
2022-08-03T04:57:35.022Z,9.418350
2022-08-03T04:58:35.021Z,9.418324
2022-08-03T04:59:35.018Z,9.418300
2022-08-03T05:00:35.030Z,9.418202
2022-08-03T05:01:35.035Z,9.418263
2022-08-03T05:02:34.984Z,9.418301
2022-08-03T05:03:34.978Z,9.418192
2022-08-03T05:04:34.979Z,9.418111
2022-08-03T05:05:49.715Z,9.418205
2022-08-03T05:06:35.956Z,9.418416
2022-08-03T05:07:36.205Z,9.418503
2022-08-03T05:08:34.940Z,9.418407
2022-08-03T05:09:49.871Z,9.418360
2022-08-03T05:10:35.950Z,9.418228
2022-08-03T05:11:34.921Z,9.418211
2022-08-03T05:12:34.914Z,9.418323
2022-08-03T05:13:34.907Z,9.418308
2022-08-03T05:14:34.903Z,9.418163
2022-08-03T05:15:34.894Z,9.418138
2022-08-03T05:16:35.895Z,9.418140
2022-08-03T05:17:34.900Z,9.418109
2022-08-03T05:18:34.879Z,9.417987
2022-08-03T05:19:34.879Z,9.418187
2022-08-03T05:20:34.867Z,9.418285
2022-08-03T05:21:52.059Z,9.418248
2022-08-03T05:22:35.850Z,9.418195
2022-08-03T05:23:34.839Z,9.418183
2022-08-03T05:24:34.827Z,9.418317
2022-08-03T05:25:34.830Z,9.418221
2022-08-03T05:26:34.887Z,9.418152
2022-08-03T05:27:34.810Z,9.418089
2022-08-03T05:28:34.802Z,9.418199
2022-08-03T05:29:34.804Z,9.418181
2022-08-03T05:30:34.890Z,9.418284
2022-08-03T05:31:34.790Z,9.418117
2022-08-03T05:32:34.783Z,9.418288
2022-08-03T05:33:34.759Z,9.418364
2022-08-03T05:34:34.767Z,9.418192
2022-08-03T05:35:57.983Z,9.418190
2022-08-03T05:36:35.779Z,9.418172
2022-08-03T05:37:34.743Z,9.418117
2022-08-03T05:38:35.583Z,9.418160
2022-08-03T05:39:34.723Z,9.417995
2022-08-03T05:40:34.714Z,9.418143
2022-08-03T05:41:37.054Z,9.418381
2022-08-03T05:42:34.719Z,9.418191
2022-08-03T05:43:34.705Z,9.418228
2022-08-03T05:44:34.698Z,9.418231
2022-08-03T05:45:34.679Z,9.418185
2022-08-03T05:46:35.678Z,9.418213
2022-08-03T05:47:34.695Z,9.418301
2022-08-03T05:48:34.667Z,9.418261
2022-08-03T05:49:34.755Z,9.418364
2022-08-03T05:50:34.655Z,9.418188
2022-08-03T05:51:34.635Z,9.418168
2022-08-03T05:52:34.635Z,9.418286
2022-08-03T05:53:34.650Z,9.418238
2022-08-03T05:54:55.606Z,9.418239
2022-08-03T05:55:35.619Z,9.418214
2022-08-03T05:56:34.614Z,9.418188
2022-08-03T05:57:34.603Z,9.418243
2022-08-03T05:58:34.607Z,9.418099
2022-08-03T05:59:38.693Z,9.418191
2022-08-03T06:00:35.586Z,9.418344
2022-08-03T06:01:34.610Z,9.418311
2022-08-03T06:02:34.571Z,9.418365
2022-08-03T06:03:34.573Z,9.418300
2022-08-03T06:04:34.575Z,9.418176
2022-08-03T06:05:34.547Z,9.418290
2022-08-03T06:06:35.543Z,9.418311
2022-08-03T06:07:34.537Z,9.418222
2022-08-03T06:08:34.527Z,9.418167
2022-08-03T06:10:33.733Z,9.418283
2022-08-03T06:10:38.353Z,9.418262
2022-08-03T06:11:34.515Z,9.418288
2022-08-03T06:12:34.511Z,9.418212
2022-08-03T06:13:34.510Z,9.418313
2022-08-03T06:14:34.524Z,9.418394
2022-08-03T06:15:34.487Z,9.418196
2022-08-03T06:16:34.483Z,9.418221
2022-08-03T06:17:37.236Z,9.418225
2022-08-03T06:18:34.462Z,9.418187
2022-08-03T06:19:34.470Z,9.418158
2022-08-03T06:20:34.455Z,9.418238
2022-08-03T06:21:34.451Z,9.418211
2022-08-03T06:22:34.431Z,9.418154
2022-08-03T06:23:53.264Z,9.418242
2022-08-03T06:24:35.438Z,9.418154
2022-08-03T06:25:34.418Z,9.418187
2022-08-03T06:26:34.408Z,9.418250
2022-08-03T06:27:36.548Z,9.418288
2022-08-03T06:28:53.303Z,9.418275
2022-08-03T06:29:36.395Z,9.418246
2022-08-03T06:30:34.399Z,9.418270
2022-08-03T06:31:34.380Z,9.418222
2022-08-03T06:32:34.362Z,9.418173
2022-08-03T06:34:31.539Z,9.418172
2022-08-03T06:34:35.843Z,9.418161
2022-08-03T06:35:34.371Z,9.418192
2022-08-03T06:36:34.343Z,9.418229
2022-08-03T06:37:34.352Z,9.418235
2022-08-03T06:38:34.319Z,9.418222
2022-08-03T06:39:34.331Z,9.418174
2022-08-03T06:40:34.331Z,9.418191
2022-08-03T06:41:38.025Z,9.418212
2022-08-03T06:42:34.307Z,9.418217
2022-08-03T06:43:35.857Z,9.418242
2022-08-03T06:44:34.299Z,9.418295
2022-08-03T06:45:34.303Z,9.418266
2022-08-03T06:46:34.291Z,9.418264
2022-08-03T06:47:34.275Z,9.418193
2022-08-03T06:48:34.282Z,9.418223
2022-08-03T06:49:34.344Z,9.418111
2022-08-03T06:50:34.275Z,9.418252
2022-08-03T06:52:03.239Z,9.418338
2022-08-03T06:52:37.879Z,9.418380
2022-08-03T06:53:34.244Z,9.418192
2022-08-03T06:54:34.219Z,9.418220
2022-08-03T06:55:34.266Z,9.418230
2022-08-03T06:56:35.220Z,9.418233
2022-08-03T06:57:34.235Z,9.418243
2022-08-03T06:58:34.203Z,9.418165
2022-08-03T07:00:06.427Z,9.418194
2022-08-03T07:00:35.187Z,9.418226
2022-08-03T07:01:34.231Z,9.418228
2022-08-03T07:02:34.191Z,9.418261
2022-08-03T07:03:34.165Z,9.418232
2022-08-03T07:04:34.167Z,9.418171
2022-08-03T07:05:34.165Z,9.418171
2022-08-03T07:06:34.152Z,9.418173
2022-08-03T07:07:34.149Z,9.418202
2022-08-03T07:08:34.621Z,9.418180
2022-08-03T07:09:35.132Z,9.418196
2022-08-03T07:10:34.125Z,9.418159
2022-08-03T07:11:34.120Z,9.418190
2022-08-03T07:12:34.108Z,9.418189
2022-08-03T07:13:34.118Z,9.418148
2022-08-03T07:14:34.103Z,9.418226
2022-08-03T07:15:53.921Z,9.418243
2022-08-03T07:16:35.087Z,9.418202
2022-08-03T07:17:34.099Z,9.418260
2022-08-03T07:18:34.071Z,9.418212
2022-08-03T07:19:34.056Z,9.418239
2022-08-03T07:20:34.061Z,9.418331
2022-08-03T07:21:34.044Z,9.418343
2022-08-03T07:22:34.059Z,9.418278
2022-08-03T07:23:34.035Z,9.418253
2022-08-03T07:24:34.024Z,9.418225
2022-08-03T07:25:34.024Z,9.418235
2022-08-03T07:26:34.023Z,9.418380
2022-08-03T07:27:34.023Z,9.418379
2022-08-03T07:28:34.004Z,9.418392
2022-08-03T07:29:34.905Z,9.418251
2022-08-03T07:30:33.979Z,9.418216
2022-08-03T07:31:34.359Z,9.418303
2022-08-03T07:32:33.984Z,9.418136
2022-08-03T07:33:33.975Z,9.418156
2022-08-03T07:34:33.964Z,9.418221
2022-08-03T07:35:34.043Z,9.418223
2022-08-03T07:36:34.435Z,9.418172
2022-08-03T07:37:34.019Z,9.418128
2022-08-03T07:38:33.938Z,9.418163
2022-08-03T07:39:33.923Z,9.418198
2022-08-03T07:40:33.930Z,9.418219
2022-08-03T07:41:33.922Z,9.418158
2022-08-03T07:42:33.912Z,9.418164
2022-08-03T07:43:33.910Z,9.418222
2022-08-03T07:44:33.899Z,9.418239
2022-08-03T07:45:33.975Z,9.418208
2022-08-03T07:46:33.908Z,9.418179
2022-08-03T07:47:34.998Z,9.418290
2022-08-03T07:48:33.879Z,9.418242
2022-08-03T07:49:33.939Z,9.418205
2022-08-03T07:50:33.867Z,9.418205
2022-08-03T07:51:33.862Z,9.418236
2022-08-03T07:52:33.839Z,9.418228
2022-08-03T07:53:33.842Z,9.418296
2022-08-03T07:54:34.840Z,9.418253
2022-08-03T07:55:34.017Z,9.418175
2022-08-03T07:56:33.818Z,9.418167
2022-08-03T07:57:33.828Z,9.418251
2022-08-03T07:58:33.823Z,9.418262
2022-08-03T07:59:57.102Z,9.418263
2022-08-03T08:00:35.796Z,9.418200
2022-08-03T08:01:33.846Z,9.418237
2022-08-03T08:02:33.790Z,9.418319
2022-08-03T08:03:41.111Z,9.418246
2022-08-03T08:04:34.786Z,9.418170
2022-08-03T08:05:33.759Z,9.418063
2022-08-03T08:06:33.794Z,9.418146
2022-08-03T08:07:33.752Z,9.418091
2022-08-03T08:08:33.726Z,9.418097
2022-08-03T08:09:34.742Z,9.418158
2022-08-03T08:10:33.722Z,9.418284
2022-08-03T08:11:38.177Z,9.418230
2022-08-03T08:12:35.726Z,9.418195
2022-08-03T08:13:33.711Z,9.418234
2022-08-03T08:14:33.738Z,9.418180
2022-08-03T08:15:33.714Z,9.418209
2022-08-03T08:16:33.695Z,9.418235
2022-08-03T08:17:33.690Z,9.418238
2022-08-03T08:18:33.678Z,9.418216
2022-08-03T08:19:33.682Z,9.418188
2022-08-03T08:20:34.900Z,9.418208
2022-08-03T08:21:53.214Z,9.418209
2022-08-03T08:22:34.698Z,9.418212
2022-08-03T08:23:43.759Z,9.418205
2022-08-03T08:24:35.737Z,9.418243
2022-08-03T08:25:33.637Z,9.418263
2022-08-03T08:26:33.634Z,9.418215
2022-08-03T08:28:22.452Z,9.418215
2022-08-03T08:28:34.654Z,9.418199
2022-08-03T08:29:34.618Z,9.418170
2022-08-03T08:30:33.610Z,9.418153
2022-08-03T08:31:33.593Z,9.418167
2022-08-03T08:32:33.607Z,9.418241
2022-08-03T08:33:48.343Z,9.418196
2022-08-03T08:34:34.578Z,9.418225
2022-08-03T08:35:33.590Z,9.418239
2022-08-03T08:36:33.566Z,9.418242
2022-08-03T08:37:33.562Z,9.418257
2022-08-03T08:38:33.553Z,9.418194
2022-08-03T08:39:33.546Z,9.418175
2022-08-03T08:40:33.554Z,9.418174
2022-08-03T08:41:33.522Z,9.418285
2022-08-03T08:42:33.526Z,9.418168
2022-08-03T08:43:33.521Z,9.418297
2022-08-03T08:44:33.514Z,9.418257
2022-08-03T08:45:33.503Z,9.418242
2022-08-03T08:46:33.513Z,9.418129
2022-08-03T08:47:51.044Z,9.418223
2022-08-03T08:48:34.485Z,9.418164
2022-08-03T08:49:33.542Z,9.418143
2022-08-03T08:50:33.479Z,9.418113
2022-08-03T08:51:59.777Z,9.418107
2022-08-03T08:52:34.643Z,9.418134
2022-08-03T08:53:33.457Z,9.418123
2022-08-03T08:54:33.453Z,9.418092
2022-08-03T08:55:58.897Z,9.418185
2022-08-03T08:56:34.477Z,9.418017
2022-08-03T08:57:42.951Z,9.418139
2022-08-03T08:58:35.425Z,9.418156
2022-08-03T08:59:48.491Z,9.418111
2022-08-03T09:00:34.418Z,9.418193
2022-08-03T09:01:33.471Z,9.418340
2022-08-03T09:02:33.405Z,9.418181
2022-08-03T09:03:33.401Z,9.418144
2022-08-03T09:04:33.393Z,9.418088
2022-08-03T09:05:54.936Z,9.418168
2022-08-03T09:06:35.403Z,9.418160
2022-08-03T09:07:33.737Z,9.418042
2022-08-03T09:08:33.385Z,9.417882
2022-08-03T09:10:12.570Z,9.418019
2022-08-03T09:10:34.357Z,9.418072
2022-08-03T09:11:52.558Z,9.418139
2022-08-03T09:12:41.539Z,9.418114
2022-08-03T09:13:35.361Z,9.418319
2022-08-03T09:14:36.763Z,9.418147
2022-08-03T09:15:33.326Z,9.417989
2022-08-03T09:16:33.326Z,9.418249
2022-08-03T09:17:33.309Z,9.418393
2022-08-03T09:18:33.474Z,9.418457
2022-08-03T09:19:33.328Z,9.418446
2022-08-03T09:20:33.306Z,9.418297
2022-08-03T09:21:34.459Z,9.418149
2022-08-03T09:22:33.298Z,9.418076
2022-08-03T09:23:59.233Z,9.418256
2022-08-03T09:24:41.535Z,9.418250
2022-08-03T09:25:35.274Z,9.418194
2022-08-03T09:26:33.263Z,9.418120
2022-08-03T09:27:33.262Z,9.418060
2022-08-03T09:28:59.943Z,9.418120
2022-08-03T09:29:34.268Z,9.418139
2022-08-03T09:30:35.105Z,9.418098
2022-08-03T09:31:33.235Z,9.418147
2022-08-03T09:32:33.229Z,9.418160
2022-08-03T09:33:35.918Z,9.418144
2022-08-03T09:34:33.238Z,9.418189
2022-08-03T09:35:51.570Z,9.418094
2022-08-03T09:36:35.188Z,9.418167
2022-08-03T09:38:12.048Z,9.418245
2022-08-03T09:38:34.191Z,9.418159
2022-08-03T09:39:41.955Z,9.418120
2022-08-03T09:40:34.189Z,9.418225
2022-08-03T09:41:33.172Z,9.418219
2022-08-03T09:42:33.163Z,9.418233
2022-08-03T09:43:33.164Z,9.418262
2022-08-03T09:44:33.156Z,9.418272
2022-08-03T09:45:33.156Z,9.418273
2022-08-03T09:46:33.144Z,9.418286
2022-08-03T09:47:33.144Z,9.418331
2022-08-03T09:48:33.139Z,9.418286
2022-08-03T09:49:33.228Z,9.418235
2022-08-03T09:50:33.124Z,9.418203
2022-08-03T09:52:31.765Z,9.418173
2022-08-03T09:52:38.801Z,9.418196
2022-08-03T09:53:34.116Z,9.418193
2022-08-03T09:54:33.113Z,9.418206
2022-08-03T09:56:34.219Z,9.418180
2022-08-03T09:56:37.080Z,9.418196
2022-08-03T09:57:33.087Z,9.418264
2022-08-03T09:58:33.076Z,9.418221
2022-08-03T09:59:33.253Z,9.418184
2022-08-03T10:00:33.073Z,9.418149
2022-08-03T10:01:33.101Z,9.418108
2022-08-03T10:02:33.061Z,9.418221
2022-08-03T10:03:33.044Z,9.418141
2022-08-03T10:04:33.056Z,9.418142
2022-08-03T10:05:33.057Z,9.418152
2022-08-03T10:06:33.038Z,9.418244
2022-08-03T10:07:33.033Z,9.418281
2022-08-03T10:08:33.017Z,9.418219
2022-08-03T10:09:33.038Z,9.418218
2022-08-03T10:10:33.053Z,9.418159
2022-08-03T10:11:35.227Z,9.418214
2022-08-03T10:12:33.004Z,9.418194
2022-08-03T10:13:32.996Z,9.418234
2022-08-03T10:14:33.012Z,9.418219
2022-08-03T10:16:22.286Z,9.418221
2022-08-03T10:16:33.971Z,9.418237
2022-08-03T10:17:35.194Z,9.418230
2022-08-03T10:18:33.964Z,9.418172
2022-08-03T10:19:32.991Z,9.418145
2022-08-03T10:20:32.989Z,9.418202
2022-08-03T10:21:33.001Z,9.418172
2022-08-03T10:22:32.941Z,9.418167
2022-08-03T10:23:34.063Z,9.418135
2022-08-03T10:24:33.957Z,9.418108
2022-08-03T10:25:33.551Z,9.418170
2022-08-03T10:26:32.929Z,9.418200
2022-08-03T10:27:32.916Z,9.418193
2022-08-03T10:28:32.921Z,9.418137
2022-08-03T10:29:32.915Z,9.418154
2022-08-03T10:30:33.008Z,9.418115
2022-08-03T10:31:32.908Z,9.418119
2022-08-03T10:32:32.964Z,9.418161
2022-08-03T10:33:51.149Z,9.418141
2022-08-03T10:34:33.877Z,9.418090
2022-08-03T10:35:32.916Z,9.418087
2022-08-03T10:36:32.875Z,9.418223
2022-08-03T10:37:32.880Z,9.418115
2022-08-03T10:38:32.864Z,9.418131
2022-08-03T10:39:32.864Z,9.418200
2022-08-03T10:40:47.969Z,9.418133
2022-08-03T10:41:34.872Z,9.418105
2022-08-03T10:42:32.844Z,9.417989
2022-08-03T10:43:32.828Z,9.417921
2022-08-03T10:44:32.832Z,9.418047
2022-08-03T10:45:32.847Z,9.418146
2022-08-03T10:46:32.849Z,9.418152
2022-08-03T10:47:32.841Z,9.418241
2022-08-03T10:48:32.817Z,9.418292
2022-08-03T10:49:34.492Z,9.418303
2022-08-03T10:50:32.808Z,9.418249
2022-08-03T10:51:32.815Z,9.418282
2022-08-03T10:52:39.513Z,9.418133
2022-08-03T10:53:34.788Z,9.418061
2022-08-03T10:54:32.797Z,9.418139
2022-08-03T10:55:32.792Z,9.418126
2022-08-03T10:56:48.134Z,9.418170
2022-08-03T10:57:33.828Z,9.418104
2022-08-03T10:58:32.796Z,9.418147
2022-08-03T10:59:32.800Z,9.418216
2022-08-03T11:00:32.820Z,9.418193
2022-08-03T11:01:58.962Z,9.418181
2022-08-03T11:02:33.747Z,9.418258
2022-08-03T11:03:32.758Z,9.418192
2022-08-03T11:04:32.756Z,9.418218
2022-08-03T11:05:32.730Z,9.418134
2022-08-03T11:06:37.471Z,9.418042
2022-08-03T11:07:33.730Z,9.418284
2022-08-03T11:08:32.738Z,9.418383
2022-08-03T11:09:32.717Z,9.418342
2022-08-03T11:10:32.714Z,9.418310
2022-08-03T11:11:32.692Z,9.418248
2022-08-03T11:12:32.886Z,9.418255
2022-08-03T11:13:32.719Z,9.418252
2022-08-03T11:14:32.680Z,9.418242
2022-08-03T11:15:33.688Z,9.418214
2022-08-03T11:16:32.683Z,9.418241
2022-08-03T11:17:32.673Z,9.418259
2022-08-03T11:18:32.688Z,9.418099
2022-08-03T11:19:32.672Z,9.418220
2022-08-03T11:20:33.652Z,9.418251
2022-08-03T11:21:33.652Z,9.418230
2022-08-03T11:22:32.656Z,9.418219
2022-08-03T11:24:05.335Z,9.418173
2022-08-03T11:24:33.644Z,9.418173
2022-08-03T11:25:53.139Z,9.418228
2022-08-03T11:26:33.631Z,9.418249
2022-08-03T11:27:32.629Z,9.418206
2022-08-03T11:28:32.619Z,9.418238
2022-08-03T11:29:32.607Z,9.418165
2022-08-03T11:30:32.602Z,9.418250
2022-08-03T11:31:49.134Z,9.418174
2022-08-03T11:32:34.595Z,9.418209
2022-08-03T11:33:32.587Z,9.418148
2022-08-03T11:34:32.593Z,9.418119
2022-08-03T11:35:32.587Z,9.418199
2022-08-03T11:36:32.782Z,9.418199
2022-08-03T11:37:33.477Z,9.418166
2022-08-03T11:38:33.568Z,9.418236
2022-08-03T11:39:32.575Z,9.418210
2022-08-03T11:40:32.572Z,9.418289
2022-08-03T11:41:32.551Z,9.418315
2022-08-03T11:42:33.551Z,9.418262
2022-08-03T11:43:32.535Z,9.418293
2022-08-03T11:44:32.532Z,9.418233